Fessenden, North Dakota
Current Conditions -  °F | °C
As of 8:35 PM on Saturday 20 Dec 2014 (Local Time) from K5H4 Reporting Station
Few Clouds Few Clouds  
Wind Chill: 21°   Ceiling: Unl
Heat Index: 21°   Visibility: 9mi
Dew Point: 21°   Wind: 3mph
Humidity: 100%   Direction: 140°SE
Pressure: 29.78"   Gusts: NA
Location:  47.65°N, 99.63°W
Report Text: K5H4 210235Z AUTO 14003KT 9SM FEW031 M06/M06 A2978 RMK AO2
Loading
Personal Weather Stations






























Interactive Weather Map New forecast layout! Learn more

10-Day Weather Forecast

Advertisements
Track Severe Weather on mobile